createdAt,value
2018-02-21T00:02:15.526Z,34.97
2018-02-21T00:04:42.964Z,35.37
2018-02-21T00:07:10.502Z,33.53
2018-02-21T00:09:37.929Z,36.07
2018-02-21T00:12:05.700Z,33.50
2018-02-21T00:14:33.152Z,36.27
2018-02-21T00:17:00.640Z,34.60
2018-02-21T00:19:28.216Z,35.50
2018-02-21T00:21:55.664Z,35.30
2018-02-21T00:24:23.191Z,34.60
2018-02-21T00:26:50.705Z,38.67
2018-02-21T00:29:18.137Z,36.17
2018-02-21T00:31:45.614Z,36.07
2018-02-21T00:34:13.057Z,35.70
2018-02-21T00:36:40.564Z,38.55
2018-02-21T00:39:08.094Z,34.72
2018-02-21T00:41:35.521Z,36.33
2018-02-21T00:44:03.739Z,34.03
2018-02-21T00:46:31.423Z,38.40
2018-02-21T00:48:59.179Z,35.77
2018-02-21T00:51:26.717Z,38.08
2018-02-21T00:53:54.593Z,38.77
2018-02-21T00:56:22.053Z,36.50
2018-02-21T00:58:49.577Z,38.35
2018-02-21T01:01:17.009Z,38.40
2018-02-21T01:03:44.477Z,37.67
2018-02-21T01:06:11.911Z,37.00
2018-02-21T01:08:39.366Z,39.58
2018-02-21T01:11:06.906Z,39.28
2018-02-21T01:13:34.386Z,38.27
2018-02-21T01:16:02.874Z,39.85
2018-02-21T01:18:30.321Z,37.93
2018-02-21T01:20:57.780Z,37.92
2018-02-21T01:23:25.225Z,37.60
2018-02-21T01:25:52.687Z,39.90
2018-02-21T01:28:20.120Z,39.53
2018-02-21T01:30:47.584Z,37.23
2018-02-21T01:33:15.015Z,37.60
2018-02-21T01:35:42.512Z,41.30
2018-02-21T01:38:10.028Z,38.05
2018-02-21T01:40:37.454Z,38.17
2018-02-21T01:43:05.033Z,36.67
2018-02-21T01:45:32.946Z,37.92
2018-02-21T01:48:00.402Z,37.03
2018-02-21T01:50:39.550Z,37.53
2018-02-21T01:53:07.000Z,38.55
2018-02-21T01:55:34.551Z,37.43
2018-02-21T01:58:03.176Z,37.08
2018-02-21T02:00:30.710Z,37.97
2018-02-21T02:02:58.485Z,40.37
2018-02-21T02:05:25.944Z,36.13
2018-02-21T02:07:53.417Z,39.50
2018-02-21T02:10:20.893Z,38.43
2018-02-21T02:12:48.328Z,37.17
2018-02-21T02:15:15.789Z,37.33
2018-02-21T02:17:43.341Z,38.60
2018-02-21T02:20:10.882Z,37.57
2018-02-21T02:22:38.334Z,40.10
2018-02-21T02:25:05.807Z,38.27
2018-02-21T02:27:33.252Z,40.73
2018-02-21T02:30:00.826Z,40.53
2018-02-21T02:32:28.266Z,41.73
2018-02-21T02:34:55.960Z,39.07
2018-02-21T02:37:23.405Z,40.13
2018-02-21T02:40:07.560Z,40.73
2018-02-21T02:42:35.128Z,39.70
2018-02-21T02:45:03.190Z,37.87
2018-02-21T02:47:30.685Z,43.80
2018-02-21T02:49:58.282Z,40.17
2018-02-21T02:52:25.990Z,41.67
2018-02-21T02:54:53.612Z,39.83
2018-02-21T02:57:21.106Z,40.83
2018-02-21T02:59:48.626Z,40.93
2018-02-21T03:02:16.137Z,41.73
2018-02-21T03:04:43.745Z,41.43
2018-02-21T03:07:11.440Z,40.17
2018-02-21T03:09:39.177Z,42.23
2018-02-21T03:12:06.619Z,40.13
2018-02-21T03:14:34.071Z,38.40
2018-02-21T03:17:01.497Z,43.93
2018-02-21T03:19:28.989Z,39.77
2018-02-21T03:21:56.430Z,41.80
2018-02-21T03:24:24.231Z,40.90
2018-02-21T03:26:51.658Z,43.00
2018-02-21T03:29:19.113Z,41.63
2018-02-21T03:31:46.632Z,42.00
2018-02-21T03:34:14.092Z,44.23
2018-02-21T03:36:41.590Z,44.10
2018-02-21T03:39:09.173Z,43.37
2018-02-21T03:41:36.627Z,42.03
2018-02-21T03:44:04.065Z,42.97
2018-02-21T03:46:31.783Z,42.80
2018-02-21T03:48:59.218Z,42.17
2018-02-21T03:51:26.708Z,44.70
2018-02-21T03:53:54.136Z,44.40
2018-02-21T03:56:21.586Z,45.22
2018-02-21T03:58:49.073Z,44.30
2018-02-21T04:01:16.728Z,46.53
2018-02-21T04:03:44.418Z,44.33
2018-02-21T04:06:11.891Z,43.60
2018-02-21T04:08:39.457Z,44.33
2018-02-21T04:11:06.908Z,42.87
2018-02-21T04:13:34.389Z,45.60
2018-02-21T04:16:01.865Z,43.30
2018-02-21T04:18:29.548Z,44.80
2018-02-21T04:20:57.225Z,44.10
2018-02-21T04:23:24.676Z,44.87
2018-02-21T04:25:52.149Z,44.40
2018-02-21T04:28:19.572Z,43.63
2018-02-21T04:30:47.041Z,45.30
2018-02-21T04:33:14.553Z,44.78
2018-02-21T04:35:42.141Z,47.13
2018-02-21T04:38:09.812Z,44.15
2018-02-21T04:40:37.301Z,46.60
2018-02-21T04:43:04.796Z,46.30
2018-02-21T04:45:32.359Z,45.23
2018-02-21T04:47:59.781Z,47.43
2018-02-21T04:50:27.474Z,46.83
2018-02-21T04:52:55.008Z,47.57
2018-02-21T04:55:43.561Z,46.90
2018-02-21T04:58:15.525Z,46.90
2018-02-21T05:00:43.032Z,46.00
2018-02-21T05:03:10.581Z,46.92
2018-02-21T05:05:38.269Z,48.35
2018-02-21T05:08:05.829Z,47.40
2018-02-21T05:10:34.019Z,45.28
2018-02-21T05:13:01.685Z,45.97
2018-02-21T05:15:29.157Z,47.50
2018-02-21T05:17:56.606Z,45.60
2018-02-21T05:20:25.173Z,45.20
2018-02-21T05:22:52.646Z,46.30
2018-02-21T05:25:20.082Z,46.80
2018-02-21T05:27:47.504Z,46.90
2018-02-21T05:30:14.952Z,48.00
2018-02-21T05:32:42.388Z,48.27
2018-02-21T05:35:09.832Z,44.60
2018-02-21T05:37:37.254Z,46.40
2018-02-21T05:40:04.698Z,47.40
2018-02-21T05:42:32.141Z,47.63
2018-02-21T05:44:59.638Z,48.30
2018-02-21T05:47:27.064Z,45.27
2018-02-21T05:49:54.506Z,47.07
2018-02-21T05:52:21.939Z,48.70
2018-02-21T05:54:49.475Z,48.50
2018-02-21T05:57:16.959Z,47.77
2018-02-21T05:59:44.577Z,47.43
2018-02-21T06:02:12.085Z,46.65
2018-02-21T06:04:39.549Z,46.90
2018-02-21T06:07:07.180Z,49.30
2018-02-21T06:09:34.616Z,48.67
2018-02-21T06:12:02.098Z,44.67
2018-02-21T06:14:29.638Z,46.20
2018-02-21T06:16:57.214Z,44.92
2018-02-21T06:19:24.791Z,46.03
2018-02-21T06:21:52.302Z,47.93
2018-02-21T06:24:20.897Z,47.67
2018-02-21T06:26:48.393Z,47.17
2018-02-21T06:29:15.980Z,47.63
2018-02-21T06:31:43.413Z,47.10
2018-02-21T06:34:10.985Z,44.07
2018-02-21T06:36:38.465Z,45.42
2018-02-21T06:39:05.942Z,46.40
2018-02-21T06:41:34.324Z,44.28
2018-02-21T06:44:01.829Z,47.80
2018-02-21T06:46:29.675Z,43.37
2018-02-21T06:48:57.169Z,44.63
2018-02-21T06:51:24.607Z,45.70
2018-02-21T06:53:52.498Z,44.03
2018-02-21T06:56:19.971Z,45.43
2018-02-21T06:58:48.025Z,43.60
2018-02-21T07:01:15.511Z,43.50
2018-02-21T07:03:42.945Z,43.37
2018-02-21T07:06:10.394Z,44.42
2018-02-21T07:08:37.858Z,43.67
2018-02-21T07:11:05.546Z,43.60
2018-02-21T07:13:33.218Z,43.07
2018-02-21T07:16:00.838Z,44.30
2018-02-21T07:18:28.274Z,42.77
2018-02-21T07:20:55.829Z,41.07
2018-02-21T07:23:23.282Z,42.47
2018-02-21T07:25:50.757Z,42.75
2018-02-21T07:28:18.445Z,51.90
2018-02-21T07:30:45.967Z,42.58
2018-02-21T07:33:13.486Z,41.50
2018-02-21T07:35:41.010Z,42.33
2018-02-21T07:38:08.471Z,42.20
2018-02-21T07:40:35.933Z,39.40
2018-02-21T07:43:03.577Z,41.80
2018-02-21T07:45:31.001Z,41.30
2018-02-21T07:47:58.589Z,42.20
2018-02-21T07:50:26.244Z,41.77
2018-02-21T07:52:53.731Z,42.90
2018-02-21T07:55:21.381Z,43.87
2018-02-21T07:57:48.890Z,43.20
2018-02-21T08:00:16.330Z,40.90
2018-02-21T08:02:43.901Z,42.28
2018-02-21T08:05:11.554Z,43.80
2018-02-21T08:07:39.006Z,43.00
2018-02-21T08:10:06.506Z,39.57
2018-02-21T08:12:34.791Z,40.88
2018-02-21T08:15:02.233Z,40.37
2018-02-21T08:17:29.762Z,43.53
2018-02-21T08:19:57.330Z,42.27
2018-02-21T08:22:24.902Z,41.78
2018-02-21T08:24:52.532Z,37.90
2018-02-21T08:27:19.990Z,41.00
2018-02-21T08:29:47.436Z,39.70
2018-02-21T08:32:14.890Z,40.28
2018-02-21T08:34:42.365Z,38.10
2018-02-21T08:37:09.821Z,38.63
2018-02-21T08:39:37.324Z,39.37
2018-02-21T08:42:04.930Z,39.05
2018-02-21T08:44:32.387Z,37.17
2018-02-21T08:46:59.842Z,38.78
2018-02-21T08:49:28.180Z,42.00
2018-02-21T08:51:55.633Z,36.83
2018-02-21T08:54:23.057Z,39.00
2018-02-21T08:56:50.521Z,37.57
2018-02-21T08:59:17.978Z,36.33
2018-02-21T09:01:45.435Z,36.20
2018-02-21T09:04:12.889Z,34.80
2018-02-21T09:06:40.628Z,35.83
2018-02-21T09:09:08.089Z,34.17
2018-02-21T09:11:35.607Z,36.03
2018-02-21T09:14:03.074Z,36.13
2018-02-21T09:16:30.546Z,34.97
2018-02-21T09:18:58.180Z,35.88
2018-02-21T09:21:25.638Z,33.23
2018-02-21T09:23:53.106Z,33.80
2018-02-21T09:26:20.551Z,32.73
2018-02-21T09:28:48.073Z,35.22
2018-02-21T09:31:15.501Z,34.00
2018-02-21T09:33:42.952Z,34.27
2018-02-21T09:36:10.445Z,32.53
2018-02-21T09:38:37.933Z,32.33
2018-02-21T09:41:05.431Z,32.33
2018-02-21T09:43:32.860Z,32.87
2018-02-21T09:46:00.324Z,33.70
2018-02-21T09:48:27.811Z,33.40
2018-02-21T09:50:55.260Z,32.37
2018-02-21T09:53:22.760Z,31.40
2018-02-21T09:55:50.208Z,31.37
2018-02-21T09:58:17.647Z,31.73
2018-02-21T10:00:45.113Z,31.97
2018-02-21T10:03:12.597Z,33.27
2018-02-21T10:05:40.058Z,32.70
2018-02-21T10:08:07.489Z,32.23
2018-02-21T10:10:35.326Z,31.45
2018-02-21T10:13:02.792Z,31.60
2018-02-21T10:15:30.241Z,32.10
2018-02-21T10:17:57.725Z,32.50
2018-02-21T10:20:25.184Z,32.97
2018-02-21T10:22:52.654Z,31.83
2018-02-21T10:25:20.129Z,27.62
2018-02-21T10:27:47.586Z,30.77
2018-02-21T10:30:15.033Z,29.93
2018-02-21T10:32:42.598Z,32.33
2018-02-21T10:35:10.039Z,29.92
2018-02-21T10:37:37.518Z,30.53
2018-02-21T10:40:05.490Z,32.90
2018-02-21T10:42:32.930Z,30.80
2018-02-21T10:45:00.401Z,31.53
2018-02-21T10:47:27.991Z,31.83
2018-02-21T10:49:55.444Z,30.43
2018-02-21T10:52:22.948Z,29.67
2018-02-21T10:54:50.421Z,30.02
2018-02-21T10:57:17.872Z,30.30
2018-02-21T10:59:45.774Z,28.87
2018-02-21T11:02:13.267Z,29.00
2018-02-21T11:04:40.769Z,27.97
2018-02-21T11:07:08.212Z,29.10
2018-02-21T11:09:35.685Z,27.87
2018-02-21T11:12:03.225Z,29.07
2018-02-21T11:14:30.668Z,27.33
2018-02-21T11:16:58.125Z,28.43
2018-02-21T11:19:25.574Z,27.27
2018-02-21T11:21:53.027Z,26.50
2018-02-21T11:24:20.697Z,25.25
2018-02-21T11:26:48.225Z,25.05
2018-02-21T11:29:15.655Z,25.73
2018-02-21T11:31:53.324Z,26.90
2018-02-21T11:34:32.251Z,28.55
2018-02-21T11:37:00.205Z,24.23
2018-02-21T11:39:27.691Z,23.70
2018-02-21T11:41:55.135Z,22.40
2018-02-21T11:44:22.570Z,22.27
2018-02-21T11:46:50.042Z,25.13
2018-02-21T11:49:17.485Z,21.58
2018-02-21T11:51:44.947Z,22.47
2018-02-21T11:54:12.640Z,22.13
2018-02-21T11:56:40.136Z,21.80
2018-02-21T11:59:07.637Z,22.20
2018-02-21T12:01:35.843Z,22.00
2018-02-21T12:04:03.293Z,24.13
2018-02-21T12:06:30.771Z,21.05
2018-02-21T12:08:58.328Z,20.50
2018-02-21T12:11:25.919Z,22.43
2018-02-21T12:13:53.610Z,22.37
2018-02-21T12:16:21.094Z,21.95
2018-02-21T12:18:48.525Z,23.07
2018-02-21T12:21:16.041Z,21.80
2018-02-21T12:23:43.787Z,20.63
2018-02-21T12:26:11.379Z,22.10
2018-02-21T12:28:38.847Z,22.07
2018-02-21T12:31:06.327Z,20.07
2018-02-21T12:33:34.089Z,23.23
2018-02-21T12:36:01.617Z,21.40
2018-02-21T12:38:29.095Z,21.77
2018-02-21T12:41:02.187Z,22.10
2018-02-21T12:43:29.669Z,22.83
2018-02-21T12:45:57.408Z,23.13
2018-02-21T12:48:24.894Z,21.80
2018-02-21T12:50:52.377Z,22.40
2018-02-21T12:53:19.829Z,21.70
2018-02-21T12:55:47.301Z,21.93
2018-02-21T12:58:14.770Z,21.47
2018-02-21T13:00:42.236Z,20.80
2018-02-21T13:03:09.672Z,23.53
2018-02-21T13:05:37.222Z,22.30
2018-02-21T13:08:04.675Z,21.80
2018-02-21T13:10:32.149Z,20.87
2018-02-21T13:12:59.633Z,22.90
2018-02-21T13:15:27.315Z,21.87
2018-02-21T13:17:54.769Z,21.47
2018-02-21T13:20:22.231Z,20.58
2018-02-21T13:22:49.684Z,21.50
2018-02-21T13:25:17.212Z,21.50
2018-02-21T13:27:44.848Z,21.90
2018-02-21T13:30:12.351Z,22.50
2018-02-21T13:32:39.795Z,22.83
2018-02-21T13:35:07.278Z,21.57
2018-02-21T13:37:37.649Z,19.83
2018-02-21T13:40:06.274Z,21.48
2018-02-21T13:42:33.711Z,20.83
2018-02-21T13:45:01.234Z,23.03
2018-02-21T13:47:28.852Z,21.53
2018-02-21T13:49:56.361Z,22.30
2018-02-21T13:52:23.878Z,21.10
2018-02-21T13:54:51.321Z,21.90
2018-02-21T13:57:18.823Z,21.27
2018-02-21T13:59:46.291Z,20.90
2018-02-21T14:02:13.774Z,20.70
2018-02-21T14:04:41.353Z,22.33
2018-02-21T14:07:08.865Z,20.07
2018-02-21T14:09:36.437Z,20.10
2018-02-21T14:12:03.894Z,19.40
2018-02-21T14:14:31.898Z,20.17
2018-02-21T14:16:59.557Z,18.90
2018-02-21T14:19:27.004Z,19.33
2018-02-21T14:21:54.453Z,19.73
2018-02-21T14:24:21.910Z,20.15
2018-02-21T14:26:49.518Z,19.90
2018-02-21T14:29:17.047Z,18.13
2018-02-21T14:31:44.636Z,19.37
2018-02-21T14:34:12.227Z,19.23
2018-02-21T14:36:39.941Z,18.03
2018-02-21T14:39:08.767Z,19.12
2018-02-21T14:41:37.292Z,18.05
2018-02-21T14:44:04.783Z,19.10
2018-02-21T14:46:32.271Z,20.00
2018-02-21T14:48:59.780Z,20.93
2018-02-21T14:51:27.935Z,21.13
2018-02-21T14:53:55.421Z,22.40
2018-02-21T14:56:22.885Z,22.43
2018-02-21T14:58:50.527Z,20.80
2018-02-21T15:01:18.072Z,20.33
2018-02-21T15:03:45.570Z,20.37
2018-02-21T15:06:13.071Z,19.80
2018-02-21T15:08:40.616Z,19.93
2018-02-21T15:11:08.092Z,20.80
2018-02-21T15:13:35.592Z,21.47
2018-02-21T15:16:03.574Z,20.83
2018-02-21T15:18:31.017Z,20.23
2018-02-21T15:20:58.465Z,19.40
2018-02-21T15:23:26.091Z,21.10
2018-02-21T15:25:53.573Z,22.08
2018-02-21T15:28:21.085Z,20.60
2018-02-21T15:30:49.681Z,18.93
2018-02-21T15:33:17.169Z,20.53
2018-02-21T15:35:44.705Z,20.42
2018-02-21T15:38:12.257Z,19.30
2018-02-21T15:40:39.711Z,19.07
2018-02-21T15:43:07.175Z,19.43
2018-02-21T15:45:34.685Z,16.70
2018-02-21T15:48:02.189Z,17.10
2018-02-21T15:50:29.887Z,18.65
2018-02-21T15:52:57.361Z,18.30
2018-02-21T15:55:24.811Z,19.15
2018-02-21T15:57:52.265Z,19.27
2018-02-21T16:00:19.899Z,18.03
2018-02-21T16:02:47.393Z,19.02
2018-02-21T16:05:14.871Z,18.60
2018-02-21T16:07:42.516Z,19.75
2018-02-21T16:10:10.010Z,19.40
2018-02-21T16:12:37.483Z,17.97
2018-02-21T16:15:04.937Z,19.30
2018-02-21T16:17:32.386Z,19.50
2018-02-21T16:19:59.862Z,19.35
2018-02-21T16:22:27.368Z,19.33
2018-02-21T16:24:54.842Z,20.37
2018-02-21T16:27:22.311Z,18.58
2018-02-21T16:29:50.782Z,19.00
2018-02-21T16:32:18.291Z,17.23
2018-02-21T16:34:45.755Z,18.97
2018-02-21T16:37:13.182Z,17.87
2018-02-21T16:39:40.642Z,17.80
2018-02-21T16:42:08.156Z,18.40
2018-02-21T16:44:35.609Z,17.87
2018-02-21T16:47:03.077Z,18.20
2018-02-21T16:49:30.546Z,18.70
2018-02-21T16:51:58.021Z,17.73
2018-02-21T16:54:27.197Z,18.90
2018-02-21T16:56:54.662Z,19.03
2018-02-21T16:59:22.236Z,17.70
2018-02-21T17:01:49.725Z,20.13
2018-02-21T17:04:17.170Z,18.33
2018-02-21T17:06:44.612Z,19.67
2018-02-21T17:09:13.113Z,17.77
2018-02-21T17:11:40.587Z,18.50
2018-02-21T17:14:08.136Z,18.77
2018-02-21T17:16:35.584Z,18.30
2018-02-21T17:19:04.440Z,20.03
2018-02-21T17:21:32.150Z,19.87
2018-02-21T17:23:59.592Z,19.53
2018-02-21T17:26:27.050Z,18.33
2018-02-21T17:28:54.507Z,20.50
2018-02-21T17:31:22.042Z,18.70
2018-02-21T17:33:49.492Z,21.17
2018-02-21T17:36:16.946Z,19.80
2018-02-21T17:38:44.433Z,20.40
2018-02-21T17:41:17.412Z,20.30
2018-02-21T17:43:44.873Z,21.40
2018-02-21T17:46:12.349Z,20.08
2018-02-21T17:48:42.629Z,22.15
2018-02-21T17:51:10.110Z,21.67
2018-02-21T17:53:37.579Z,21.37
2018-02-21T17:56:05.010Z,21.33
2018-02-21T17:58:32.466Z,19.93
2018-02-21T18:01:00.177Z,20.57
2018-02-21T18:03:27.814Z,20.97
2018-02-21T18:05:55.275Z,21.80
2018-02-21T18:08:22.746Z,20.98
2018-02-21T18:10:50.323Z,21.20
2018-02-21T18:13:17.825Z,21.07
2018-02-21T18:15:45.298Z,20.50
2018-02-21T18:18:12.750Z,20.10
2018-02-21T18:20:40.216Z,19.73
2018-02-21T18:23:07.695Z,19.63
2018-02-21T18:25:35.189Z,21.07
2018-02-21T18:28:02.656Z,20.70
2018-02-21T18:30:30.195Z,20.60
2018-02-21T18:32:57.656Z,20.73
2018-02-21T18:35:25.231Z,21.50
2018-02-21T18:37:52.763Z,22.23
2018-02-21T18:40:20.266Z,22.15
2018-02-21T18:42:47.716Z,21.90
2018-02-21T18:45:15.175Z,21.77
2018-02-21T18:47:42.801Z,24.27
2018-02-21T18:50:10.293Z,23.70
2018-02-21T18:52:38.066Z,24.30
2018-02-21T18:55:05.606Z,25.20
2018-02-21T18:57:33.577Z,24.03
2018-02-21T19:00:01.034Z,25.83
2018-02-21T19:02:28.792Z,25.20
2018-02-21T19:04:56.285Z,24.80
2018-02-21T19:07:23.885Z,25.70
2018-02-21T19:09:51.461Z,25.50
2018-02-21T19:12:19.097Z,25.37
2018-02-21T19:14:47.042Z,26.10
2018-02-21T19:17:15.429Z,26.97
2018-02-21T19:19:42.881Z,27.20
2018-02-21T19:22:11.280Z,28.60
2018-02-21T19:24:38.743Z,28.23
2018-02-21T19:27:06.181Z,29.80
2018-02-21T19:29:33.758Z,32.10
2018-02-21T19:32:01.237Z,30.73
2018-02-21T19:34:28.698Z,31.55
2018-02-21T19:36:56.153Z,32.03
2018-02-21T19:39:23.615Z,31.87
2018-02-21T19:41:51.122Z,30.50
2018-02-21T19:44:18.578Z,32.77
2018-02-21T19:46:46.034Z,32.13
2018-02-21T19:49:13.490Z,34.60
2018-02-21T19:51:40.924Z,31.50
2018-02-21T19:54:08.610Z,34.30
2018-02-21T19:56:36.065Z,32.07
2018-02-21T19:59:03.513Z,33.53
2018-02-21T20:01:31.004Z,33.50
2018-02-21T20:03:58.456Z,33.60
2018-02-21T20:06:25.913Z,32.97
2018-02-21T20:08:53.350Z,34.50
2018-02-21T20:11:20.855Z,32.63
2018-02-21T20:13:48.298Z,33.78
2018-02-21T20:16:15.784Z,34.77
2018-02-21T20:18:43.224Z,33.60
2018-02-21T20:21:10.689Z,33.97
2018-02-21T20:23:38.165Z,35.53
2018-02-21T20:26:05.613Z,32.70
2018-02-21T20:28:33.094Z,34.17
2018-02-21T20:31:00.559Z,33.17
2018-02-21T20:33:28.042Z,33.40
2018-02-21T20:35:55.730Z,35.80
2018-02-21T20:38:23.403Z,33.47
2018-02-21T20:40:51.074Z,36.33
2018-02-21T20:43:18.571Z,36.30
2018-02-21T20:45:46.073Z,34.58
2018-02-21T20:48:13.679Z,35.50
2018-02-21T20:50:42.094Z,34.75
2018-02-21T20:53:09.588Z,35.27
2018-02-21T20:55:38.219Z,40.12
2018-02-21T20:58:05.678Z,35.20
2018-02-21T21:00:33.810Z,34.30
2018-02-21T21:03:01.353Z,35.73
2018-02-21T21:05:28.994Z,33.60
2018-02-21T21:07:56.490Z,34.97
2018-02-21T21:10:23.929Z,35.97
2018-02-21T21:12:51.373Z,36.22
2018-02-21T21:15:18.860Z,38.43
2018-02-21T21:17:46.608Z,33.60
2018-02-21T21:20:14.186Z,36.13
2018-02-21T21:22:41.645Z,33.97
2018-02-21T21:25:09.081Z,35.60
2018-02-21T21:27:37.434Z,35.80
2018-02-21T21:30:04.882Z,33.50
2018-02-21T21:32:32.340Z,33.53
2018-02-21T21:34:59.785Z,34.67
2018-02-21T21:37:27.290Z,37.50
2018-02-21T21:39:54.745Z,35.50
2018-02-21T21:42:23.189Z,32.75
2018-02-21T21:44:50.646Z,33.10
2018-02-21T21:47:18.210Z,35.22
2018-02-21T21:49:45.671Z,33.97
2018-02-21T21:52:13.279Z,35.45
2018-02-21T21:54:41.556Z,34.87
2018-02-21T21:57:09.118Z,34.20
2018-02-21T21:59:36.814Z,34.80
2018-02-21T22:02:05.268Z,35.72
2018-02-21T22:04:32.703Z,33.87
2018-02-21T22:07:00.535Z,34.40
2018-02-21T22:09:27.982Z,34.77
2018-02-21T22:11:55.437Z,34.83
2018-02-21T22:14:22.940Z,33.90
2018-02-21T22:16:50.393Z,32.42
2018-02-21T22:19:17.861Z,33.63
2018-02-21T22:21:46.427Z,35.50
2018-02-21T22:24:14.043Z,33.47
2018-02-21T22:26:41.559Z,31.50
2018-02-21T22:29:09.220Z,35.60
2018-02-21T22:31:36.968Z,33.93
2018-02-21T22:34:04.505Z,31.93
2018-02-21T22:36:32.020Z,33.07
2018-02-21T22:38:59.473Z,33.33
2018-02-21T22:41:27.038Z,33.77
2018-02-21T22:43:54.523Z,34.15
2018-02-21T22:46:22.069Z,30.88
2018-02-21T22:48:49.533Z,31.42
2018-02-21T22:51:17.182Z,32.03
2018-02-21T22:53:44.638Z,33.50
2018-02-21T22:56:12.101Z,31.97
2018-02-21T22:58:39.544Z,31.92
2018-02-21T23:01:07.004Z,33.90
2018-02-21T23:03:34.433Z,31.00
2018-02-21T23:06:01.881Z,31.30
2018-02-21T23:08:29.324Z,33.10
2018-02-21T23:10:56.927Z,31.07
2018-02-21T23:13:24.450Z,31.70
2018-02-21T23:15:51.921Z,30.80
2018-02-21T23:18:19.367Z,32.38
2018-02-21T23:20:46.815Z,30.95
2018-02-21T23:23:14.266Z,30.57
2018-02-21T23:25:41.793Z,31.70
2018-02-21T23:28:09.250Z,30.47
2018-02-21T23:30:36.709Z,31.60
2018-02-21T23:33:04.185Z,31.30
2018-02-21T23:35:31.634Z,30.37
2018-02-21T23:37:59.168Z,30.20
2018-02-21T23:40:26.610Z,31.30
2018-02-21T23:42:54.061Z,31.05
2018-02-21T23:45:21.730Z,29.77
2018-02-21T23:47:49.191Z,29.17
2018-02-21T23:50:16.642Z,28.97
2018-02-21T23:52:44.153Z,28.80
2018-02-21T23:55:11.689Z,28.23
2018-02-21T23:57:39.147Z,28.73
